Time;durP1;ratioP1;P1;durP2;ratioP2;P2;SDS_P1;SDS_P2;PMS_P1;PMS_P2;Temp;Humidity;BMP_temperature;BMP_pressure;BME280_temperature;BME280_humidity;BME280_pressure;Samples;Min_cycle;Max_cycle;Signal;HPM_P1;HPM_P2
2021/12/27 00:00:28;;;;;;;14.38;5.35;;;;;;;-0.62;100.00;95282.25;5045903;28;20061;-71
2021/12/27 00:02:57;;;;;;;7.18;2.80;;;;;;;-0.74;100.00;95290.97;5044628;28;20550;-71
2021/12/27 00:05:22;;;;;;;10.52;4.30;;;;;;;-0.76;100.00;95291.19;5043474;28;20086;-71
2021/12/27 00:07:50;;;;;;;9.85;3.95;;;;;;;-0.73;100.00;95287.31;5045029;28;20408;-71
2021/12/27 00:10:18;;;;;;;22.50;5.80;;;;;;;-0.75;100.00;95279.66;5044406;28;20048;-71
2021/12/27 00:12:43;;;;;;;17.17;5.88;;;;;;;-0.75;100.00;95284.91;5045768;28;20047;-72
2021/12/27 00:15:09;;;;;;;9.13;4.38;;;;;;;-0.81;100.00;95277.03;5045167;28;20025;-71
2021/12/27 00:17:36;;;;;;;17.90;6.00;;;;;;;-0.76;100.00;95277.22;5044230;28;20315;-71
2021/12/27 00:20:03;;;;;;;39.55;5.65;;;;;;;-0.69;100.00;95278.03;5046050;28;20033;-71
2021/12/27 00:22:28;;;;;;;34.30;4.00;;;;;;;-0.76;100.00;95271.97;5043664;28;20361;-71
2021/12/27 00:24:54;;;;;;;10.50;5.55;;;;;;;-0.77;100.00;95271.16;5045982;28;20274;-71
2021/12/27 00:27:19;;;;;;;20.10;5.07;;;;;;;-0.70;100.00;95271.13;5045636;28;20037;-72
2021/12/27 00:29:45;;;;;;;41.22;4.35;;;;;;;-0.73;100.00;95277.63;5045444;28;20061;-73
2021/12/27 00:32:11;;;;;;;6.30;3.30;;;;;;;-0.75;100.00;95278.84;5044402;28;20142;-72
2021/12/27 00:34:36;;;;;;;7.05;3.40;;;;;;;-0.75;100.00;95266.50;5045272;28;20025;-72
2021/12/27 00:37:07;;;;;;;17.45;3.90;;;;;;;-0.71;100.00;95277.41;5043351;28;20036;-73
2021/12/27 00:39:33;;;;;;;16.15;5.10;;;;;;;-0.70;100.00;95271.13;5044939;28;20032;-72
2021/12/27 00:41:59;;;;;;;14.95;3.33;;;;;;;-0.76;100.00;95261.47;5044827;28;20031;-71
2021/12/27 00:44:25;;;;;;;12.75;3.38;;;;;;;-0.69;100.00;95257.81;5042832;28;20037;-72
2021/12/27 00:46:51;;;;;;;9.15;3.72;;;;;;;-0.72;100.00;95270.53;5044042;28;20048;-72
2021/12/27 00:49:16;;;;;;;51.00;5.18;;;;;;;-0.70;100.00;95269.34;5043455;28;20121;-72
2021/12/27 00:51:42;;;;;;;14.77;4.22;;;;;;;-0.70;100.00;95265.88;5042360;28;20051;-71
2021/12/27 00:54:07;;;;;;;29.67;5.35;;;;;;;-0.67;100.00;95265.47;5041033;28;20032;-72
2021/12/27 00:56:33;;;;;;;13.98;4.63;;;;;;;-0.59;100.00;95265.25;5046788;28;20384;-73
2021/12/27 00:58:58;;;;;;;17.45;5.55;;;;;;;-0.58;100.00;95262.41;5045743;28;20047;-72
2021/12/27 01:01:24;;;;;;;14.65;4.35;;;;;;;-0.58;100.00;95267.66;5044659;28;20060;-72
2021/12/27 01:03:49;;;;;;;28.85;5.43;;;;;;;-0.53;100.00;95277.56;5045780;28;20080;-72
2021/12/27 01:06:15;;;;;;;31.25;5.50;;;;;;;-0.59;100.00;95273.13;5043111;28;20029;-72
2021/12/27 01:08:40;;;;;;;25.77;5.57;;;;;;;-0.50;100.00;95273.69;5044662;28;20487;-73
2021/12/27 01:11:24;;;;;;;68.75;5.43;;;;;;;-0.47;100.00;95265.38;5045402;28;20448;-73
2021/12/27 01:14:11;;;;;;;56.00;8.25;;;;;;;-0.56;100.00;95277.97;5043525;28;20044;-72
2021/12/27 01:16:39;;;;;;;41.78;5.15;;;;;;;-0.56;100.00;95285.84;5044201;28;20414;-72
2021/12/27 01:19:06;;;;;;;23.30;4.22;;;;;;;-0.62;100.00;95276.19;5047601;28;20451;-71
2021/12/27 01:21:32;;;;;;;66.60;10.30;;;;;;;-0.58;100.00;95287.88;5045240;28;20067;-73
2021/12/27 01:23:58;;;;;;;36.17;5.60;;;;;;;-0.61;100.00;95290.94;5044178;28;20127;-72
2021/12/27 01:26:26;;;;;;;53.42;7.07;;;;;;;-0.63;100.00;95285.06;5046595;28;20619;-72
2021/12/27 01:28:53;;;;;;;24.05;4.15;;;;;;;-0.67;100.00;95279.41;5047941;28;20057;-71
2021/12/27 01:31:20;;;;;;;41.85;4.78;;;;;;;-0.64;100.00;95275.56;5043493;28;20044;-71
2021/12/27 01:33:46;;;;;;;24.58;4.43;;;;;;;-0.59;100.00;95265.25;5044174;28;20156;-71
2021/12/27 01:36:13;;;;;;;55.85;6.18;;;;;;;-0.56;100.00;95278.75;5045190;28;20043;-73
2021/12/27 01:38:40;;;;;;;20.02;5.13;;;;;;;-0.53;100.00;95274.94;5043621;28;20033;-71
2021/12/27 01:41:07;;;;;;;43.05;5.88;;;;;;;-0.51;100.00;95270.28;5047975;28;20068;-71
2021/12/27 01:43:36;;;;;;;43.70;5.60;;;;;;;-0.46;100.00;95270.47;5043240;28;20661;-73
2021/12/27 01:46:08;;;;;;;6.57;3.38;;;;;;;-0.51;100.00;95270.28;5043874;28;20044;-71
2021/12/27 01:48:38;;;;;;;31.42;5.45;;;;;;;-0.46;100.00;95267.03;5037321;28;20113;-73
2021/12/27 01:51:07;;;;;;;33.92;5.93;;;;;;;-0.43;100.00;95271.84;5044346;28;20072;-71
2021/12/27 01:53:35;;;;;;;42.88;4.43;;;;;;;-0.47;100.00;95253.06;5043557;28;20033;-71
2021/12/27 01:56:01;;;;;;;41.10;3.95;;;;;;;-0.45;100.00;95255.50;5026627;28;20411;-73
2021/12/27 01:58:27;;;;;;;66.22;4.63;;;;;;;-0.46;100.00;95249.44;5043701;28;20033;-73
2021/12/27 02:00:56;;;;;;;44.78;3.65;;;;;;;-0.44;100.00;95241.34;5044978;28;20048;-73
2021/12/27 02:03:24;;;;;;;67.10;5.28;;;;;;;-0.42;100.00;95236.66;5048334;28;20063;-72
2021/12/27 02:05:50;;;;;;;36.33;5.85;;;;;;;-0.34;100.00;95244.31;5045611;28;20041;-71
2021/12/27 02:08:16;;;;;;;62.17;6.53;;;;;;;-0.35;100.00;95246.13;5031061;28;20379;-72
2021/12/27 02:10:42;;;;;;;22.38;3.92;;;;;;;-0.33;100.00;95236.22;5045302;28;20079;-72
2021/12/27 02:13:09;;;;;;;18.33;4.93;;;;;;;-0.28;100.00;95243.47;5043500;28;20116;-72
2021/12/27 02:15:35;;;;;;;34.72;4.93;;;;;;;-0.31;100.00;95239.47;5045032;28;20070;-72
2021/12/27 02:18:00;;;;;;;46.03;5.60;;;;;;;-0.34;100.00;95252.19;5042391;28;20033;-72
2021/12/27 02:20:32;;;;;;;69.40;7.72;;;;;;;-0.26;100.00;95249.31;5045323;28;20067;-72
2021/12/27 02:23:02;;;;;;;53.75;5.43;;;;;;;-0.26;100.00;95243.25;5041962;28;20044;-74
2021/12/27 02:25:30;;;;;;;47.70;7.20;;;;;;;-0.35;100.00;95246.13;5043618;28;20025;-73
2021/12/27 02:27:56;;;;;;;62.22;5.38;;;;;;;-0.43;100.00;95246.38;5040304;28;20411;-73
2021/12/27 02:30:22;;;;;;;94.30;6.90;;;;;;;-0.45;100.00;95244.97;5046626;28;20076;-72
2021/12/27 02:32:57;;;;;;;10.75;3.00;;;;;;;-0.57;100.00;95242.19;5047815;28;20048;-72
2021/12/27 02:35:27;;;;;;;44.38;3.90;;;;;;;-0.57;100.00;95239.56;5047738;28;20090;-72
2021/12/27 02:37:54;;;;;;;31.07;3.57;;;;;;;-0.58;100.00;95230.88;5046152;28;20075;-71
2021/12/27 02:40:22;;;;;;;53.50;4.65;;;;;;;-0.58;100.00;95228.25;5047986;28;20041;-74
2021/12/27 02:43:12;;;;;;;32.60;4.60;;;;;;;-0.59;100.00;95231.09;5046865;28;20426;-72
2021/12/27 02:45:42;;;;;;;33.78;3.88;;;;;;;-0.61;100.00;95226.03;5041157;28;20084;-73
2021/12/27 02:48:08;;;;;;;72.72;5.10;;;;;;;-0.52;100.00;95231.88;5045393;28;20043;-72
2021/12/27 02:50:35;;;;;;;52.83;4.88;;;;;;;-0.53;100.00;95232.09;5047487;28;20124;-73
2021/12/27 02:53:02;;;;;;;124.85;8.63;;;;;;;-0.54;100.00;95228.66;5044787;28;20037;-72
2021/12/27 02:55:29;;;;;;;54.80;3.33;;;;;;;-0.56;100.00;95228.03;5049134;28;20360;-72
2021/12/27 02:57:55;;;;;;;108.32;8.38;;;;;;;-0.60;100.00;95221.59;5045665;28;20044;-71
2021/12/27 03:00:34;;;;;;;161.88;8.35;;;;;;;-0.54;100.00;95223.41;5046998;28;20036;-72
2021/12/27 03:03:00;;;;;;;94.75;6.85;;;;;;;-0.45;100.00;95222.13;5046822;28;20045;-72
2021/12/27 03:05:28;;;;;;;171.23;7.63;;;;;;;-0.35;100.00;95232.19;5046414;28;20043;-70
2021/12/27 03:07:55;;;;;;;120.63;9.15;;;;;;;-0.18;100.00;95233.31;5044851;28;20041;-70
2021/12/27 03:10:27;;;;;;;151.85;8.20;;;;;;;-0.23;100.00;95222.63;5046032;28;20082;-70
2021/12/27 03:12:54;;;;;;;160.45;7.43;;;;;;;-0.34;100.00;95228.53;5044807;28;20285;-71
2021/12/27 03:15:23;;;;;;;164.82;8.52;;;;;;;-0.31;100.00;95233.41;5047086;28;20037;-69
2021/12/27 03:17:51;;;;;;;176.07;7.95;;;;;;;-0.33;100.00;95235.41;5044473;28;20041;-71
2021/12/27 03:20:19;;;;;;;119.15;5.97;;;;;;;-0.44;100.00;95223.75;5046474;28;20037;-71
2021/12/27 03:22:45;;;;;;;192.40;7.20;;;;;;;-0.43;100.00;95232.44;5045262;28;20041;-69
2021/12/27 03:25:17;;;;;;;76.53;7.18;;;;;;;-0.49;100.00;95228.81;5046461;28;20044;-71
2021/12/27 03:27:43;;;;;;;83.05;4.50;;;;;;;-0.52;100.00;95231.88;5046666;28;20353;-71
2021/12/27 03:30:13;;;;;;;67.57;4.03;;;;;;;-0.57;100.00;95218.53;5046276;28;20029;-69
2021/12/27 03:32:39;;;;;;;12.70;2.53;;;;;;;-0.51;100.00;95222.16;5046151;28;20037;-69
2021/12/27 03:35:10;;;;;;;74.95;6.68;;;;;;;-0.48;100.00;95221.72;5046218;28;20079;-70
2021/12/27 03:37:38;;;;;;;16.38;2.95;;;;;;;-0.57;100.00;95221.97;5045016;28;20383;-70
2021/12/27 03:40:06;;;;;;;19.20;2.35;;;;;;;-0.58;100.00;95217.72;5045876;28;20470;-69
2021/12/27 03:42:31;;;;;;;14.88;2.67;;;;;;;-0.59;100.00;95202.97;5045918;28;20136;-69
2021/12/27 03:44:57;;;;;;;6.18;1.70;;;;;;;-0.61;100.00;95209.47;5046194;28;20121;-73
2021/12/27 03:47:22;;;;;;;4.20;1.70;;;;;;;-0.57;100.00;95210.66;5044883;28;20066;-71
2021/12/27 03:49:49;;;;;;;7.93;2.53;;;;;;;-0.57;100.00;95208.03;5046965;28;20069;-71
2021/12/27 03:52:15;;;;;;;5.57;2.25;;;;;;;-0.56;100.00;95207.81;5044706;28;20145;-71
2021/12/27 03:54:40;;;;;;;6.72;2.22;;;;;;;-0.51;100.00;95209.81;5045784;28;20045;-71
2021/12/27 03:57:06;;;;;;;5.68;2.30;;;;;;;-0.53;100.00;95205.81;5044721;28;20048;-70
2021/12/27 03:59:48;;;;;;;21.38;3.15;;;;;;;-0.54;100.00;95189.22;5044818;28;20404;-72
2021/12/27 04:02:15;;;;;;;11.85;2.75;;;;;;;-0.52;100.00;95197.69;5043757;28;20045;-72
2021/12/27 04:04:42;;;;;;;5.40;2.58;;;;;;;-0.53;100.00;95200.53;5044693;28;20068;-71
2021/12/27 04:07:08;;;;;;;6.55;3.35;;;;;;;-0.52;100.00;95200.34;5035963;28;20052;-72
2021/12/27 04:09:35;;;;;;;6.43;2.58;;;;;;;-0.45;100.00;95193.22;5044195;28;20029;-71
2021/12/27 04:12:01;;;;;;;5.88;2.33;;;;;;;-0.46;100.00;95203.94;5044247;28;20044;-71
2021/12/27 04:14:27;;;;;;;5.10;2.42;;;;;;;-0.46;100.00;95191.63;5044268;28;20329;-71
2021/12/27 04:16:53;;;;;;;8.30;1.60;;;;;;;-0.51;100.00;95196.69;5044039;28;20377;-71
2021/12/27 04:19:19;;;;;;;17.13;2.05;;;;;;;-0.51;100.00;95193.25;5045362;28;20032;-71
2021/12/27 04:21:45;;;;;;;42.03;3.75;;;;;;;-0.45;100.00;95187.16;5045373;28;20398;-71
2021/12/27 04:24:13;;;;;;;14.10;2.35;;;;;;;-0.47;100.00;95189.16;5044950;28;20033;-71
2021/12/27 04:26:39;;;;;;;25.30;2.85;;;;;;;-0.48;100.00;95198.06;5044481;28;20082;-72
2021/12/27 04:29:06;;;;;;;20.63;2.78;;;;;;;-0.48;100.00;95192.81;5043525;28;20024;-72
2021/12/27 04:31:33;;;;;;;23.83;3.33;;;;;;;-0.38;100.00;95191.38;5044157;28;20522;-71
2021/12/27 04:33:59;;;;;;;34.08;3.20;;;;;;;-0.39;100.00;95191.56;5043839;28;20262;-71
2021/12/27 04:36:25;;;;;;;27.55;2.90;;;;;;;-0.43;100.00;95190.38;5046185;28;20032;-71
2021/12/27 04:38:50;;;;;;;34.08;5.63;;;;;;;-0.26;100.00;95185.41;5043768;28;20110;-72
2021/12/27 04:41:20;;;;;;;75.82;5.25;;;;;;;-0.26;100.00;95191.47;5043736;28;20056;-71
2021/12/27 04:43:46;;;;;;;81.43;4.60;;;;;;;-0.30;100.00;95187.69;5045145;28;20069;-71
2021/12/27 04:46:12;;;;;;;71.70;3.97;;;;;;;-0.39;100.00;95194.19;5044782;28;20322;-72
2021/12/27 04:48:37;;;;;;;138.68;5.57;;;;;;;-0.37;100.00;95198.22;5043958;28;20122;-73
2021/12/27 04:51:03;;;;;;;160.43;9.18;;;;;;;-0.41;100.00;95197.03;5041928;28;20116;-73
2021/12/27 04:53:28;;;;;;;28.90;2.03;;;;;;;-0.44;100.00;95192.19;5043967;28;20033;-71
2021/12/27 04:55:54;;;;;;;106.45;5.70;;;;;;;-0.43;100.00;95193.00;5044213;28;20036;-71
2021/12/27 04:58:23;;;;;;;83.13;4.75;;;;;;;-0.42;100.00;95178.84;5047908;28;20033;-72
2021/12/27 05:00:50;;;;;;;109.60;5.07;;;;;;;-0.39;100.00;95183.66;5044212;28;20039;-72
2021/12/27 05:03:16;;;;;;;46.30;3.92;;;;;;;-0.41;100.00;95189.13;5046173;28;20407;-71
2021/12/27 05:05:44;;;;;;;62.30;3.42;;;;;;;-0.38;100.00;95180.84;5044800;28;20036;-71
2021/12/27 05:08:11;;;;;;;84.65;4.20;;;;;;;-0.36;100.00;95178.00;5043720;28;20036;-71
2021/12/27 05:10:37;;;;;;;166.45;6.70;;;;;;;-0.36;100.00;95178.00;5044736;28;20503;-71
2021/12/27 05:13:03;;;;;;;195.02;6.95;;;;;;;-0.35;100.00;95184.88;5043406;28;20333;-71
2021/12/27 05:15:28;;;;;;;182.30;6.68;;;;;;;-0.33;100.00;95181.00;5044763;28;20032;-70
2021/12/27 05:17:54;;;;;;;166.27;7.43;;;;;;;-0.23;100.00;95172.69;5042021;28;20422;-72
2021/12/27 05:20:20;;;;;;;243.90;11.68;;;;;;;-0.24;100.00;95162.34;5046012;28;20520;-72
2021/12/27 05:22:46;;;;;;;144.82;5.60;;;;;;;-0.25;100.00;95166.00;5042429;28;20516;-71
2021/12/27 05:25:14;;;;;;;211.13;9.68;;;;;;;-0.22;100.00;95162.97;5044112;28;20044;-72
2021/12/27 05:27:40;;;;;;;184.55;5.90;;;;;;;-0.15;100.00;95166.34;5042997;28;20036;-70
2021/12/27 05:30:07;;;;;;;152.25;6.28;;;;;;;-0.14;100.00;95155.63;5044498;28;20931;-72
2021/12/27 05:32:34;;;;;;;179.35;5.88;;;;;;;-0.11;100.00;95155.19;5043731;28;20175;-71
2021/12/27 05:34:59;;;;;;;244.93;9.18;;;;;;;-0.11;100.00;95159.63;5043299;28;20033;-72
2021/12/27 05:37:25;;;;;;;292.80;8.50;;;;;;;-0.08;100.00;95167.09;5041866;28;20029;-70
2021/12/27 05:39:50;;;;;;;204.75;8.50;;;;;;;-0.18;100.00;95166.75;5044216;28;20075;-70
2021/12/27 05:42:16;;;;;;;186.07;7.78;;;;;;;-0.25;100.00;95161.53;5043871;28;20395;-71
2021/12/27 05:44:41;;;;;;;291.05;12.18;;;;;;;-0.27;100.00;95155.69;5044523;28;20045;-72
2021/12/27 05:47:07;;;;;;;206.15;8.32;;;;;;;-0.15;100.00;95161.09;5041094;28;20460;-71
2021/12/27 05:49:32;;;;;;;177.57;6.82;;;;;;;-0.11;100.00;95160.44;5042658;28;20384;-71
2021/12/27 05:51:58;;;;;;;95.53;5.43;;;;;;;-0.21;100.00;95164.56;5041922;28;20041;-72
2021/12/27 05:54:26;;;;;;;118.55;4.93;;;;;;;-0.24;100.00;95143.94;5042680;28;20040;-70
2021/12/27 05:56:51;;;;;;;34.45;2.15;;;;;;;-0.26;100.00;95159.94;5043165;28;20487;-71
2021/12/27 05:59:17;;;;;;;272.38;12.82;;;;;;;-0.24;100.00;95157.09;5043460;28;20151;-70
2021/12/27 06:01:44;;;;;;;171.43;9.32;;;;;;;-0.32;100.00;95151.06;5042259;28;20025;-71
2021/12/27 06:04:10;;;;;;;193.10;5.80;;;;;;;-0.32;100.00;95148.44;5041731;28;20116;-71
2021/12/27 06:06:36;;;;;;;207.60;7.63;;;;;;;-0.29;100.00;95152.47;5040841;28;20175;-72
2021/12/27 06:09:04;;;;;;;95.05;4.35;;;;;;;-0.22;100.00;95147.19;5041508;28;20409;-71
2021/12/27 06:11:29;;;;;;;59.17;3.75;;;;;;;-0.19;100.00;95159.91;5045110;28;20104;-71
2021/12/27 06:13:55;;;;;;;247.98;9.10;;;;;;;-0.15;100.00;95154.00;5045809;28;20505;-70
2021/12/27 06:16:23;;;;;;;192.02;7.60;;;;;;;-0.21;100.00;95152.22;5042488;28;20040;-71
2021/12/27 06:18:51;;;;;;;165.57;7.43;;;;;;;-0.25;100.00;95161.53;5042445;28;20040;-71
2021/12/27 06:21:16;;;;;;;120.28;8.07;;;;;;;-0.26;100.00;95157.31;5043056;28;20072;-71
2021/12/27 06:23:42;;;;;;;75.00;5.65;;;;;;;-0.30;100.00;95153.50;5043378;28;20032;-70
2021/12/27 06:26:08;;;;;;;75.63;4.30;;;;;;;-0.24;100.00;95150.00;5042387;28;20047;-72
2021/12/27 06:28:34;;;;;;;112.25;9.90;;;;;;;-0.29;100.00;95148.03;5042782;28;20408;-72
2021/12/27 06:31:01;;;;;;;150.23;8.10;;;;;;;-0.28;100.00;95144.38;5041325;28;20048;-71
2021/12/27 06:33:27;;;;;;;66.18;3.85;;;;;;;-0.22;100.00;95141.94;5043502;28;20672;-71
2021/12/27 06:35:53;;;;;;;181.80;13.20;;;;;;;-0.19;100.00;95139.66;5042497;28;20445;-71
2021/12/27 06:38:20;;;;;;;47.72;2.65;;;;;;;-0.23;100.00;95145.56;5041444;28;20033;-72
2021/12/27 06:40:47;;;;;;;33.05;3.78;;;;;;;-0.28;100.00;95140.94;5043882;28;20531;-70
2021/12/27 06:43:12;;;;;;;39.40;2.80;;;;;;;-0.32;100.00;95132.66;5043219;28;20047;-71
2021/12/27 06:45:38;;;;;;;18.35;1.55;;;;;;;-0.31;100.00;95131.66;5041804;28;20029;-72
2021/12/27 06:48:04;;;;;;;19.13;2.70;;;;;;;-0.31;100.00;95139.56;5041798;28;20067;-71
2021/12/27 06:50:29;;;;;;;83.40;5.20;;;;;;;-0.32;100.00;95131.84;5043161;28;20044;-71
2021/12/27 06:52:55;;;;;;;61.47;3.45;;;;;;;-0.32;100.00;95137.91;5040268;28;20029;-71
2021/12/27 06:55:20;;;;;;;33.88;3.03;;;;;;;-0.30;100.00;95135.91;5043108;28;20246;-72
2021/12/27 06:57:46;;;;;;;98.75;5.65;;;;;;;-0.31;100.00;95136.94;5043795;28;20067;-71
2021/12/27 07:00:13;;;;;;;87.72;5.30;;;;;;;-0.20;100.00;95130.16;5042971;28;20032;-71
2021/12/27 07:02:39;;;;;;;74.78;4.07;;;;;;;-0.18;100.00;95124.69;5044033;28;20041;-71
2021/12/27 07:05:07;;;;;;;35.60;4.32;;;;;;;-0.16;100.00;95126.06;5041354;28;20041;-71
2021/12/27 07:07:33;;;;;;;22.30;2.83;;;;;;;-0.11;100.00;95128.06;5041742;28;20315;-71
2021/12/27 07:09:58;;;;;;;23.33;5.18;;;;;;;-0.12;100.00;95127.28;5043312;28;20399;-72
2021/12/27 07:12:24;;;;;;;62.05;5.70;;;;;;;-0.11;100.00;95120.19;5042246;28;20094;-71
2021/12/27 07:14:49;;;;;;;66.38;7.28;;;;;;;-0.09;100.00;95120.78;5045000;28;20037;-70
2021/12/27 07:17:15;;;;;;;89.70;7.70;;;;;;;-0.10;100.00;95140.19;5045193;28;20036;-70
2021/12/27 07:19:41;;;;;;;13.45;5.95;;;;;;;-0.15;100.00;95140.06;5046656;28;20116;-71
2021/12/27 07:22:07;;;;;;;36.50;5.70;;;;;;;-0.12;100.00;95129.91;5045211;28;20139;-71
2021/12/27 07:24:33;;;;;;;72.07;6.95;;;;;;;-0.09;100.00;95129.47;5047120;28;20288;-71
2021/12/27 07:26:59;;;;;;;96.70;7.65;;;;;;;-0.08;100.00;95135.53;5029356;28;20056;-70
2021/12/27 07:29:24;;;;;;;15.98;3.15;;;;;;;-0.06;100.00;95142.22;5047803;28;20132;-72
2021/12/27 07:31:50;;;;;;;57.42;3.70;;;;;;;-0.05;100.00;95138.56;5045753;28;20076;-73
2021/12/27 07:34:19;;;;;;;62.75;4.55;;;;;;;-0.04;100.00;95134.09;5031088;28;20444;-71
2021/12/27 07:36:47;;;;;;;79.30;4.13;;;;;;;0.02;100.00;95142.97;5045942;28;20033;-70
2021/12/27 07:39:13;;;;;;;48.47;4.15;;;;;;;0.08;100.00;95139.44;5044922;28;20124;-70
2021/12/27 07:41:39;;;;;;;17.23;2.17;;;;;;;0.08;100.00;95137.66;5047603;28;20037;-71
2021/12/27 07:44:07;;;;;;;71.82;5.30;;;;;;;0.18;100.00;95134.53;5045731;28;20049;-71
2021/12/27 07:46:35;;;;;;;70.03;3.50;;;;;;;0.18;100.00;95137.97;5027351;28;20061;-71
2021/12/27 07:49:02;;;;;;;94.00;4.05;;;;;;;0.28;100.00;95124.31;5046499;28;20531;-71
2021/12/27 07:51:28;;;;;;;16.77;4.85;;;;;;;0.31;100.00;95136.22;5046032;28;20435;-72
2021/12/27 07:53:53;;;;;;;88.60;4.80;;;;;;;0.31;100.00;95142.28;5044840;28;20052;-71
2021/12/27 07:56:19;;;;;;;98.35;5.70;;;;;;;0.27;100.00;95141.94;5045638;28;20472;-71
2021/12/27 07:58:44;;;;;;;86.25;6.10;;;;;;;0.31;100.00;95139.66;5046032;28;20040;-72
2021/12/27 08:01:10;;;;;;;170.07;9.43;;;;;;;0.35;100.00;95132.16;5042587;28;20496;-72
2021/12/27 08:03:35;;;;;;;146.75;7.32;;;;;;;0.39;100.00;95128.03;5044620;28;20782;-71
2021/12/27 08:06:01;;;;;;;151.75;9.68;;;;;;;0.41;100.00;95128.66;5044178;28;20041;-71
2021/12/27 08:08:26;;;;;;;131.52;7.82;;;;;;;0.40;100.00;95134.94;5044495;28;20053;-71
2021/12/27 08:10:52;;;;;;;135.75;7.03;;;;;;;0.40;100.00;95129.69;5044782;28;20124;-71
2021/12/27 08:13:21;;;;;;;174.25;9.75;;;;;;;0.41;100.00;95129.47;5043244;28;20041;-72
2021/12/27 08:15:46;;;;;;;258.48;13.40;;;;;;;0.47;100.00;95130.44;5045549;28;20040;-73
2021/12/27 08:18:12;;;;;;;200.68;7.65;;;;;;;0.42;100.00;95127.63;5043464;28;20045;-70
2021/12/27 08:20:37;;;;;;;160.32;8.52;;;;;;;0.52;100.00;95127.94;5045985;28;20408;-71
2021/12/27 08:23:03;;;;;;;102.50;5.65;;;;;;;0.47;100.00;95135.69;5042510;28;20036;-71
2021/12/27 08:25:28;;;;;;;136.07;8.23;;;;;;;0.41;100.00;95133.91;5043776;28;20037;-72
2021/12/27 08:27:54;;;;;;;103.40;6.80;;;;;;;0.39;100.00;95135.94;5044072;28;20150;-70
2021/12/27 08:30:20;;;;;;;94.95;5.18;;;;;;;0.41;100.00;95132.09;5045231;28;20144;-71
2021/12/27 08:32:46;;;;;;;221.20;9.23;;;;;;;0.47;100.00;95127.78;5044071;28;20083;-70
2021/12/27 08:35:13;;;;;;;53.53;4.47;;;;;;;0.46;100.00;95128.78;5043517;28;20083;-70
2021/12/27 08:37:40;;;;;;;43.33;1.98;;;;;;;0.50;100.00;95141.31;5042436;28;20106;-72
2021/12/27 08:40:07;;;;;;;165.40;6.63;;;;;;;0.65;100.00;95124.38;5045655;28;20140;-71
2021/12/27 08:42:32;;;;;;;72.65;4.57;;;;;;;0.73;100.00;95126.72;5045173;28;20029;-70
2021/12/27 08:44:58;;;;;;;156.05;6.30;;;;;;;0.78;100.00;95126.88;5045511;28;20122;-71
2021/12/27 08:47:24;;;;;;;102.93;5.15;;;;;;;0.72;100.00;95115.38;5043805;28;20041;-71
2021/12/27 08:49:49;;;;;;;66.03;6.57;;;;;;;0.68;100.00;95110.75;5047217;28;20044;-70
2021/12/27 08:52:15;;;;;;;91.35;5.18;;;;;;;0.79;100.00;95110.03;5043147;28;20538;-73
2021/12/27 08:54:40;;;;;;;77.15;5.07;;;;;;;0.85;100.00;95109.13;5028189;28;20025;-71
2021/12/27 08:57:09;;;;;;;76.13;3.92;;;;;;;0.90;100.00;95103.22;5027153;28;20548;-72
2021/12/27 08:59:39;;;;;;;89.18;5.07;;;;;;;0.95;100.00;95106.81;5043708;28;20033;-71
2021/12/27 09:02:05;;;;;;;52.97;2.85;;;;;;;0.89;100.00;95107.69;5045109;28;20064;-71
2021/12/27 09:04:31;;;;;;;97.97;5.20;;;;;;;0.96;100.00;95115.50;5043627;28;20149;-70
2021/12/27 09:06:58;;;;;;;188.35;8.90;;;;;;;0.95;100.00;95119.19;5044059;28;20037;-71
2021/12/27 09:09:24;;;;;;;105.97;4.95;;;;;;;0.82;100.00;95106.94;5042876;28;20482;-71
2021/12/27 09:11:50;;;;;;;128.63;10.80;;;;;;;0.86;100.00;95113.41;5043558;28;20036;-71
2021/12/27 09:14:16;;;;;;;73.65;3.85;;;;;;;0.82;100.00;95104.31;5043213;28;20479;-71
2021/12/27 09:16:43;;;;;;;97.88;4.30;;;;;;;0.81;100.00;95100.88;5045115;28;20041;-71
2021/12/27 09:19:11;;;;;;;60.70;3.95;;;;;;;0.83;100.00;95104.09;5044537;28;20452;-70
2021/12/27 09:21:37;;;;;;;119.55;5.53;;;;;;;0.87;100.00;95106.31;5045407;28;20050;-72
2021/12/27 09:24:04;;;;;;;80.80;6.65;;;;;;;0.85;100.00;95106.50;5044333;28;20102;-71
2021/12/27 09:26:29;;;;;;;120.57;6.95;;;;;;;0.81;100.00;95106.16;5043670;28;20092;-71
2021/12/27 09:28:56;;;;;;;107.95;6.95;;;;;;;0.86;100.00;95109.94;5043094;28;20124;-71
2021/12/27 09:31:22;;;;;;;201.98;8.52;;;;;;;0.97;100.00;95103.94;5044455;28;20091;-71
2021/12/27 09:33:47;;;;;;;79.88;3.53;;;;;;;1.01;100.00;95105.09;5025592;28;20501;-71
2021/12/27 09:36:12;;;;;;;35.80;2.65;;;;;;;0.97;100.00;95101.31;5041267;28;20070;-72
2021/12/27 09:38:38;;;;;;;102.75;8.52;;;;;;;0.95;100.00;95103.38;5041604;28;20385;-71
2021/12/27 09:41:04;;;;;;;51.65;3.53;;;;;;;0.99;100.00;95101.88;5044108;28;20060;-72
2021/12/27 09:43:30;;;;;;;128.90;7.95;;;;;;;1.00;100.00;95099.03;5042001;28;20067;-70
2021/12/27 09:45:55;;;;;;;125.65;7.18;;;;;;;1.06;100.00;95100.78;5042162;28;20436;-71
2021/12/27 09:48:21;;;;;;;31.90;2.63;;;;;;;1.13;100.00;95103.34;5042376;28;20045;-71
2021/12/27 09:50:51;;;;;;;16.73;2.78;;;;;;;1.14;100.00;95094.41;5043228;28;20044;-70
2021/12/27 09:53:16;;;;;;;10.70;4.03;;;;;;;1.15;100.00;95096.00;5022936;28;20582;-71
2021/12/27 09:55:42;;;;;;;12.52;3.30;;;;;;;1.24;100.00;95092.03;5042144;28;20035;-70
2021/12/27 09:58:08;;;;;;;24.15;2.38;;;;;;;1.20;100.00;95082.19;5041788;28;20430;-71
2021/12/27 10:00:34;;;;;;;25.17;2.15;;;;;;;1.24;100.00;95085.94;5041045;28;20911;-70
2021/12/27 10:03:00;;;;;;;9.18;2.67;;;;;;;1.23;100.00;95085.16;5041210;28;20037;-70
2021/12/27 10:05:29;;;;;;;6.00;1.63;;;;;;;1.30;100.00;95083.22;5042382;28;20044;-71
2021/12/27 10:07:55;;;;;;;3.80;1.58;;;;;;;1.44;100.00;95080.41;5041238;28;20057;-71
2021/12/27 10:10:21;;;;;;;2.70;1.38;;;;;;;1.55;100.00;95082.28;5042983;28;20107;-73
2021/12/27 10:12:47;;;;;;;4.03;1.75;;;;;;;1.64;100.00;95070.41;5043653;28;20041;-71
2021/12/27 10:15:16;;;;;;;12.82;1.63;;;;;;;1.75;100.00;95074.88;5044590;28;20079;-71
2021/12/27 10:17:43;;;;;;;7.13;1.45;;;;;;;1.74;100.00;95078.56;5041678;28;20025;-70
2021/12/27 10:20:21;;;;;;;6.25;1.88;;;;;;;1.76;100.00;95080.97;5045022;28;20102;-71
2021/12/27 10:22:49;;;;;;;8.27;1.40;;;;;;;1.72;100.00;95077.97;5044811;28;20045;-71
2021/12/27 10:25:24;;;;;;;21.90;2.00;;;;;;;1.73;100.00;95081.44;5042907;28;20044;-72
2021/12/27 10:27:56;;;;;;;28.25;2.75;;;;;;;1.69;100.00;95083.69;5041808;28;20172;-71
2021/12/27 10:30:26;;;;;;;6.95;2.60;;;;;;;1.76;100.00;95073.03;5042659;28;20107;-71
2021/12/27 10:33:15;;;;;;;48.10;2.95;;;;;;;1.81;100.00;95073.97;5043252;28;20049;-70
2021/12/27 10:35:43;;;;;;;36.65;2.75;;;;;;;1.89;100.00;95057.00;5043122;28;20056;-71
2021/12/27 10:38:28;;;;;;;48.25;3.47;;;;;;;1.86;100.00;95062.72;5040750;28;20037;-71
2021/12/27 10:41:03;;;;;;;33.40;2.60;;;;;;;1.89;100.00;95062.28;5041953;28;20080;-71
2021/12/27 10:43:50;;;;;;;92.05;4.00;;;;;;;2.02;100.00;95048.06;5042827;28;21024;-71
2021/12/27 10:46:20;;;;;;;76.43;4.30;;;;;;;1.92;100.00;95053.91;5041884;28;20072;-71
2021/12/27 10:48:55;;;;;;;47.67;3.15;;;;;;;1.85;100.00;95050.56;5043157;28;20040;-71
2021/12/27 10:51:21;;;;;;;103.95;4.47;;;;;;;1.80;100.00;95056.56;5045992;28;20242;-71
2021/12/27 10:53:53;;;;;;;81.45;3.10;;;;;;;1.77;100.00;95053.56;5045591;28;20039;-71
2021/12/27 10:56:21;;;;;;;64.43;3.15;;;;;;;1.80;100.00;95053.91;5044610;28;20067;-71
2021/12/27 10:58:54;;;;;;;63.07;3.53;;;;;;;1.80;100.00;95048.63;5047102;28;20037;-70
2021/12/27 11:01:22;;;;;;;70.15;4.82;;;;;;;1.83;100.00;95050.00;5046124;28;20076;-71
2021/12/27 11:03:51;;;;;;;58.88;3.30;;;;;;;1.85;100.00;95047.94;5047338;28;20175;-71
2021/12/27 11:06:22;;;;;;;69.68;4.07;;;;;;;1.93;100.00;95042.31;5046852;28;20033;-71
2021/12/27 11:08:48;;;;;;;25.63;2.45;;;;;;;2.03;100.00;95039.13;5010929;28;20037;-72
2021/12/27 11:11:15;;;;;;;32.13;2.10;;;;;;;2.11;100.00;95038.78;5046975;28;20036;-71
2021/12/27 11:13:42;;;;;;;13.98;2.60;;;;;;;2.19;100.00;95027.88;5046948;28;20049;-71
2021/12/27 11:16:08;;;;;;;5.80;2.25;;;;;;;2.24;100.00;95023.50;5046241;28;20041;-72
2021/12/27 11:18:34;;;;;;;4.88;1.90;;;;;;;2.44;100.00;95017.88;5047204;28;20035;-71